sensor_id;sensor_type;location;lat;lon;timestamp;pressure;altitude;pressure_sealevel;temperature;humidity
67373;BME280;54257;54.496;18.412;2023-04-25T00:01:41;98408.22;;;12.34;88.16
67373;BME280;54257;54.496;18.412;2023-04-25T00:04:08;98410.23;;;12.38;88.09
67373;BME280;54257;54.496;18.412;2023-04-25T00:06:34;98404.22;;;12.39;88.06
67373;BME280;54257;54.496;18.412;2023-04-25T00:09:04;98404.75;;;12.38;88.20
67373;BME280;54257;54.496;18.412;2023-04-25T00:11:34;98400.92;;;12.41;88.03
67373;BME280;54257;54.496;18.412;2023-04-25T00:14:01;98398.41;;;12.38;88.14
67373;BME280;54257;54.496;18.412;2023-04-25T00:16:29;98395.16;;;12.38;88.23
67373;BME280;54257;54.496;18.412;2023-04-25T00:19:00;98391.73;;;12.38;88.07
67373;BME280;54257;54.496;18.412;2023-04-25T00:21:28;98390.02;;;12.37;88.07
67373;BME280;54257;54.496;18.412;2023-04-25T00:23:55;98388.52;;;12.35;87.95
67373;BME280;54257;54.496;18.412;2023-04-25T00:26:22;98388.18;;;12.35;87.85
67373;BME280;54257;54.496;18.412;2023-04-25T00:28:49;98386.64;;;12.34;88.06
67373;BME280;54257;54.496;18.412;2023-04-25T00:31:16;98384.50;;;12.30;87.98
67373;BME280;54257;54.496;18.412;2023-04-25T00:33:43;98385.56;;;12.27;88.08
67373;BME280;54257;54.496;18.412;2023-04-25T00:36:10;98387.38;;;12.21;88.39
67373;BME280;54257;54.496;18.412;2023-04-25T00:38:37;98386.58;;;12.17;88.51
67373;BME280;54257;54.496;18.412;2023-04-25T00:41:07;98392.59;;;12.16;88.48
67373;BME280;54257;54.496;18.412;2023-04-25T00:43:36;98387.30;;;12.15;88.39
67373;BME280;54257;54.496;18.412;2023-04-25T00:46:03;98385.42;;;12.15;88.45
67373;BME280;54257;54.496;18.412;2023-04-25T00:48:30;98384.21;;;12.16;88.37
67373;BME280;54257;54.496;18.412;2023-04-25T00:50:58;98384.85;;;12.18;88.32
67373;BME280;54257;54.496;18.412;2023-04-25T00:53:27;98385.70;;;12.18;88.33
67373;BME280;54257;54.496;18.412;2023-04-25T00:55:54;98382.43;;;12.09;88.63
67373;BME280;54257;54.496;18.412;2023-04-25T00:58:22;98385.73;;;12.05;88.80
67373;BME280;54257;54.496;18.412;2023-04-25T01:00:51;98385.27;;;12.02;88.76
67373;BME280;54257;54.496;18.412;2023-04-25T01:03:19;98390.48;;;11.97;89.01
67373;BME280;54257;54.496;18.412;2023-04-25T01:05:48;98388.17;;;11.90;89.35
67373;BME280;54257;54.496;18.412;2023-04-25T01:08:15;98394.45;;;11.82;89.62
67373;BME280;54257;54.496;18.412;2023-04-25T01:10:42;98391.27;;;11.75;89.75
67373;BME280;54257;54.496;18.412;2023-04-25T01:13:10;98392.86;;;11.71;90.00
67373;BME280;54257;54.496;18.412;2023-04-25T01:15:37;98391.05;;;11.65;90.26
67373;BME280;54257;54.496;18.412;2023-04-25T01:18:05;98395.73;;;11.61;90.50
67373;BME280;54257;54.496;18.412;2023-04-25T01:20:33;98395.11;;;11.56;91.57
67373;BME280;54257;54.496;18.412;2023-04-25T01:23:01;98397.75;;;11.51;91.90
67373;BME280;54257;54.496;18.412;2023-04-25T01:25:32;98396.45;;;11.45;92.20
67373;BME280;54257;54.496;18.412;2023-04-25T01:28:00;98395.99;;;11.41;92.22
67373;BME280;54257;54.496;18.412;2023-04-25T01:30:27;98397.54;;;11.39;92.47
67373;BME280;54257;54.496;18.412;2023-04-25T01:32:58;98397.59;;;11.36;93.18
67373;BME280;54257;54.496;18.412;2023-04-25T01:35:26;98396.43;;;11.33;93.16
67373;BME280;54257;54.496;18.412;2023-04-25T01:37:55;98395.05;;;11.34;93.04
67373;BME280;54257;54.496;18.412;2023-04-25T01:40:22;98393.12;;;11.37;92.89
67373;BME280;54257;54.496;18.412;2023-04-25T01:42:51;98393.42;;;11.41;92.91
67373;BME280;54257;54.496;18.412;2023-04-25T01:45:18;98390.48;;;11.44;92.81
67373;BME280;54257;54.496;18.412;2023-04-25T01:47:45;98391.45;;;11.48;92.78
67373;BME280;54257;54.496;18.412;2023-04-25T01:50:17;98395.02;;;11.50;92.76
67373;BME280;54257;54.496;18.412;2023-04-25T01:52:45;98395.01;;;11.51;93.03
67373;BME280;54257;54.496;18.412;2023-04-25T01:55:12;98395.00;;;11.52;92.97
67373;BME280;54257;54.496;18.412;2023-04-25T01:57:38;98393.41;;;11.56;92.92
67373;BME280;54257;54.496;18.412;2023-04-25T02:00:06;98397.50;;;11.56;92.90
67373;BME280;54257;54.496;18.412;2023-04-25T02:02:35;98400.08;;;11.56;92.88
67373;BME280;54257;54.496;18.412;2023-04-25T02:05:02;98402.86;;;11.52;93.09
67373;BME280;54257;54.496;18.412;2023-04-25T02:07:29;98402.02;;;11.50;93.33
67373;BME280;54257;54.496;18.412;2023-04-25T02:09:56;98403.96;;;11.45;93.34
67373;BME280;54257;54.496;18.412;2023-04-25T02:12:24;98404.13;;;11.45;93.33
67373;BME280;54257;54.496;18.412;2023-04-25T02:14:53;98405.02;;;11.44;93.23
67373;BME280;54257;54.496;18.412;2023-04-25T02:17:20;98409.29;;;11.44;93.22
67373;BME280;54257;54.496;18.412;2023-04-25T02:19:48;98409.98;;;11.43;93.40
67373;BME280;54257;54.496;18.412;2023-04-25T02:22:15;98413.23;;;11.43;93.25
67373;BME280;54257;54.496;18.412;2023-04-25T02:24:42;98418.03;;;11.42;93.20
67373;BME280;54257;54.496;18.412;2023-04-25T02:27:09;98414.62;;;11.42;93.28
67373;BME280;54257;54.496;18.412;2023-04-25T02:29:36;98416.83;;;11.43;93.28
67373;BME280;54257;54.496;18.412;2023-04-25T02:32:03;98412.19;;;11.44;93.25
67373;BME280;54257;54.496;18.412;2023-04-25T02:34:30;98414.27;;;11.43;93.61
67373;BME280;54257;54.496;18.412;2023-04-25T02:36:57;98414.45;;;11.41;93.99
67373;BME280;54257;54.496;18.412;2023-04-25T02:39:25;98412.77;;;11.38;94.02
67373;BME280;54257;54.496;18.412;2023-04-25T02:41:54;98412.80;;;11.36;93.98
67373;BME280;54257;54.496;18.412;2023-04-25T02:44:21;98415.56;;;11.34;94.26
67373;BME280;54257;54.496;18.412;2023-04-25T02:46:48;98416.26;;;11.34;94.08
67373;BME280;54257;54.496;18.412;2023-04-25T02:49:14;98414.04;;;11.33;94.29
67373;BME280;54257;54.496;18.412;2023-04-25T02:51:41;98414.39;;;11.32;94.41
67373;BME280;54257;54.496;18.412;2023-04-25T02:54:08;98412.88;;;11.29;94.76
67373;BME280;54257;54.496;18.412;2023-04-25T02:56:35;98415.45;;;11.29;94.82
67373;BME280;54257;54.496;18.412;2023-04-25T02:59:02;98411.34;;;11.29;94.66
67373;BME280;54257;54.496;18.412;2023-04-25T03:01:29;98414.05;;;11.32;94.46
67373;BME280;54257;54.496;18.412;2023-04-25T03:03:56;98415.23;;;11.33;94.40
67373;BME280;54257;54.496;18.412;2023-04-25T03:06:23;98413.17;;;11.34;94.32
67373;BME280;54257;54.496;18.412;2023-04-25T03:08:50;98410.59;;;11.35;94.26
67373;BME280;54257;54.496;18.412;2023-04-25T03:11:17;98420.66;;;11.36;94.44
67373;BME280;54257;54.496;18.412;2023-04-25T03:13:44;98426.40;;;11.27;92.57
67373;BME280;54257;54.496;18.412;2023-04-25T03:16:11;98430.17;;;11.12;91.11
67373;BME280;54257;54.496;18.412;2023-04-25T03:18:38;98435.07;;;11.00;90.77
67373;BME280;54257;54.496;18.412;2023-04-25T03:21:05;98438.25;;;10.88;90.01
67373;BME280;54257;54.496;18.412;2023-04-25T03:23:32;98440.98;;;10.70;88.96
67373;BME280;54257;54.496;18.412;2023-04-25T03:25:59;98443.17;;;10.54;88.85
67373;BME280;54257;54.496;18.412;2023-04-25T03:28:27;98443.10;;;10.41;88.76
67373;BME280;54257;54.496;18.412;2023-04-25T03:30:55;98444.19;;;10.30;88.58
67373;BME280;54257;54.496;18.412;2023-04-25T03:33:22;98446.96;;;10.22;88.54
67373;BME280;54257;54.496;18.412;2023-04-25T03:35:49;98447.04;;;10.09;88.12
67373;BME280;54257;54.496;18.412;2023-04-25T03:38:17;98449.65;;;10.01;88.29
67373;BME280;54257;54.496;18.412;2023-04-25T03:40:44;98455.15;;;9.93;88.66
67373;BME280;54257;54.496;18.412;2023-04-25T03:43:11;98451.45;;;9.83;88.66
67373;BME280;54257;54.496;18.412;2023-04-25T03:45:38;98447.39;;;9.76;88.83
67373;BME280;54257;54.496;18.412;2023-04-25T03:48:04;98450.66;;;9.69;88.86
67373;BME280;54257;54.496;18.412;2023-04-25T03:50:32;98447.98;;;9.61;89.08
67373;BME280;54257;54.496;18.412;2023-04-25T03:52:59;98452.09;;;9.56;89.45
67373;BME280;54257;54.496;18.412;2023-04-25T03:55:26;98452.29;;;9.47;89.59
67373;BME280;54257;54.496;18.412;2023-04-25T03:57:53;98455.03;;;9.41;89.55
67373;BME280;54257;54.496;18.412;2023-04-25T04:00:20;98454.20;;;9.35;89.82
67373;BME280;54257;54.496;18.412;2023-04-25T04:02:47;98454.23;;;9.30;89.95
67373;BME280;54257;54.496;18.412;2023-04-25T04:05:14;98455.23;;;9.27;90.19
67373;BME280;54257;54.496;18.412;2023-04-25T04:07:42;98460.89;;;9.21;90.26
67373;BME280;54257;54.496;18.412;2023-04-25T04:10:10;98456.47;;;9.17;90.25
67373;BME280;54257;54.496;18.412;2023-04-25T04:12:38;98456.81;;;9.11;90.66
67373;BME280;54257;54.496;18.412;2023-04-25T04:15:06;98459.55;;;9.05;90.50
67373;BME280;54257;54.496;18.412;2023-04-25T04:17:33;98460.92;;;9.02;90.65
67373;BME280;54257;54.496;18.412;2023-04-25T04:20:00;98459.73;;;8.99;90.58
67373;BME280;54257;54.496;18.412;2023-04-25T04:22:27;98460.09;;;8.95;90.91
67373;BME280;54257;54.496;18.412;2023-04-25T04:24:55;98465.70;;;8.93;90.89
67373;BME280;54257;54.496;18.412;2023-04-25T04:27:23;98468.79;;;8.90;91.04
67373;BME280;54257;54.496;18.412;2023-04-25T04:29:50;98472.34;;;8.87;91.15
67373;BME280;54257;54.496;18.412;2023-04-25T04:32:20;98471.33;;;8.85;91.23
67373;BME280;54257;54.496;18.412;2023-04-25T04:34:47;98473.38;;;8.84;91.53
67373;BME280;54257;54.496;18.412;2023-04-25T04:37:15;98476.11;;;8.81;91.57
67373;BME280;54257;54.496;18.412;2023-04-25T04:39:42;98478.65;;;8.79;91.56
67373;BME280;54257;54.496;18.412;2023-04-25T04:42:09;98480.02;;;8.79;91.69
67373;BME280;54257;54.496;18.412;2023-04-25T04:44:38;98481.21;;;8.80;91.83
67373;BME280;54257;54.496;18.412;2023-04-25T04:47:05;98483.77;;;8.80;91.89
67373;BME280;54257;54.496;18.412;2023-04-25T04:49:33;98485.11;;;8.78;91.97
67373;BME280;54257;54.496;18.412;2023-04-25T04:52:00;98485.63;;;8.76;91.97
67373;BME280;54257;54.496;18.412;2023-04-25T04:54:29;98483.08;;;8.76;92.12
67373;BME280;54257;54.496;18.412;2023-04-25T04:57:07;98484.27;;;8.77;92.40
67373;BME280;54257;54.496;18.412;2023-04-25T04:59:34;98481.21;;;8.76;92.33
67373;BME280;54257;54.496;18.412;2023-04-25T05:02:02;98481.89;;;8.75;92.25
67373;BME280;54257;54.496;18.412;2023-04-25T05:04:29;98478.48;;;8.76;92.58
67373;BME280;54257;54.496;18.412;2023-04-25T05:06:56;98478.82;;;8.77;92.52
67373;BME280;54257;54.496;18.412;2023-04-25T05:09:23;98475.59;;;8.77;92.69
67373;BME280;54257;54.496;18.412;2023-04-25T05:11:52;98486.48;;;8.76;92.57
67373;BME280;54257;54.496;18.412;2023-04-25T05:14:19;98481.72;;;8.77;92.63
67373;BME280;54257;54.496;18.412;2023-04-25T05:16:46;98484.95;;;8.79;92.87
67373;BME280;54257;54.496;18.412;2023-04-25T05:19:13;98488.20;;;8.80;93.06
67373;BME280;54257;54.496;18.412;2023-04-25T05:21:41;98490.56;;;8.79;92.72
67373;BME280;54257;54.496;18.412;2023-04-25T05:24:10;98494.15;;;8.76;92.54
67373;BME280;54257;54.496;18.412;2023-04-25T05:26:37;98495.51;;;8.77;92.65
67373;BME280;54257;54.496;18.412;2023-04-25T05:29:04;98489.20;;;8.78;92.65
67373;BME280;54257;54.496;18.412;2023-04-25T05:31:32;98490.58;;;8.82;92.73
67373;BME280;54257;54.496;18.412;2023-04-25T05:33:59;98489.55;;;8.83;92.25
67373;BME280;54257;54.496;18.412;2023-04-25T05:36:26;98490.91;;;8.84;91.79
67373;BME280;54257;54.496;18.412;2023-04-25T05:38:57;98488.52;;;8.84;91.15
67373;BME280;54257;54.496;18.412;2023-04-25T05:41:24;98494.66;;;8.84;90.81
67373;BME280;54257;54.496;18.412;2023-04-25T05:43:52;98499.25;;;8.85;90.73
67373;BME280;54257;54.496;18.412;2023-04-25T05:46:19;98499.59;;;8.85;90.46
67373;BME280;54257;54.496;18.412;2023-04-25T05:48:47;98502.48;;;8.88;90.49
67373;BME280;54257;54.496;18.412;2023-04-25T05:51:14;98503.52;;;8.92;90.24
67373;BME280;54257;54.496;18.412;2023-04-25T05:53:41;98507.08;;;8.94;89.89
67373;BME280;54257;54.496;18.412;2023-04-25T05:56:08;98508.96;;;8.95;89.74
67373;BME280;54257;54.496;18.412;2023-04-25T05:58:35;98509.30;;;8.96;89.05
67373;BME280;54257;54.496;18.412;2023-04-25T06:01:03;98516.44;;;8.94;88.53
67373;BME280;54257;54.496;18.412;2023-04-25T06:03:30;98518.32;;;8.92;88.43
67373;BME280;54257;54.496;18.412;2023-04-25T06:05:57;98521.05;;;8.87;88.26
67373;BME280;54257;54.496;18.412;2023-04-25T06:08:24;98523.59;;;8.86;88.36
67373;BME280;54257;54.496;18.412;2023-04-25T06:10:51;98527.68;;;8.84;88.23
67373;BME280;54257;54.496;18.412;2023-04-25T06:13:18;98530.92;;;8.82;88.18
67373;BME280;54257;54.496;18.412;2023-04-25T06:15:45;98526.33;;;8.80;88.27
67373;BME280;54257;54.496;18.412;2023-04-25T06:18:12;98526.83;;;8.78;88.22
67373;BME280;54257;54.496;18.412;2023-04-25T06:20:40;98526.66;;;8.76;88.15
67373;BME280;54257;54.496;18.412;2023-04-25T06:23:07;98523.27;;;8.72;87.98
67373;BME280;54257;54.496;18.412;2023-04-25T06:25:34;98523.94;;;8.68;88.17
67373;BME280;54257;54.496;18.412;2023-04-25T06:28:01;98521.21;;;8.65;88.35
67373;BME280;54257;54.496;18.412;2023-04-25T06:30:27;98518.98;;;8.61;88.52
67373;BME280;54257;54.496;18.412;2023-04-25T06:32:55;98522.06;;;8.57;88.76
67373;BME280;54257;54.496;18.412;2023-04-25T06:35:22;98525.63;;;8.51;89.05
67373;BME280;54257;54.496;18.412;2023-04-25T06:37:49;98526.11;;;8.44;89.52
67373;BME280;54257;54.496;18.412;2023-04-25T06:40:16;98530.35;;;8.37;89.60
67373;BME280;54257;54.496;18.412;2023-04-25T06:42:46;98530.16;;;8.33;89.78
67373;BME280;54257;54.496;18.412;2023-04-25T06:45:17;98526.06;;;8.30;90.20
67373;BME280;54257;54.496;18.412;2023-04-25T06:47:46;98527.91;;;8.29;90.37
67373;BME280;54257;54.496;18.412;2023-04-25T06:50:13;98527.41;;;8.27;90.44
67373;BME280;54257;54.496;18.412;2023-04-25T06:52:40;98531.15;;;8.26;90.61
67373;BME280;54257;54.496;18.412;2023-04-25T06:55:08;98529.27;;;8.22;90.89
67373;BME280;54257;54.496;18.412;2023-04-25T06:57:39;98529.95;;;8.19;91.03
67373;BME280;54257;54.496;18.412;2023-04-25T07:00:06;98530.79;;;8.17;91.23
67373;BME280;54257;54.496;18.412;2023-04-25T07:02:36;98523.48;;;8.15;91.57
67373;BME280;54257;54.496;18.412;2023-04-25T07:05:03;98523.31;;;8.16;91.35
67373;BME280;54257;54.496;18.412;2023-04-25T07:07:33;98528.24;;;8.17;91.45
67373;BME280;54257;54.496;18.412;2023-04-25T07:10:01;98532.15;;;8.18;91.49
67373;BME280;54257;54.496;18.412;2023-04-25T07:12:28;98530.11;;;8.20;91.60
67373;BME280;54257;54.496;18.412;2023-04-25T07:14:55;98531.33;;;8.23;91.65
67373;BME280;54257;54.496;18.412;2023-04-25T07:17:22;98533.70;;;8.26;91.34
67373;BME280;54257;54.496;18.412;2023-04-25T07:19:50;98530.98;;;8.26;91.11
67373;BME280;54257;54.496;18.412;2023-04-25T07:22:16;98529.96;;;8.26;90.77
67373;BME280;54257;54.496;18.412;2023-04-25T07:24:44;98530.48;;;8.27;90.80
67373;BME280;54257;54.496;18.412;2023-04-25T07:27:15;98533.05;;;8.31;91.00
67373;BME280;54257;54.496;18.412;2023-04-25T07:29:42;98536.81;;;8.35;91.03
67373;BME280;54257;54.496;18.412;2023-04-25T07:32:09;98534.79;;;8.39;91.03
67373;BME280;54257;54.496;18.412;2023-04-25T07:34:39;98533.77;;;8.43;90.71
67373;BME280;54257;54.496;18.412;2023-04-25T07:37:06;98535.14;;;8.46;90.59
67373;BME280;54257;54.496;18.412;2023-04-25T07:39:33;98534.98;;;8.51;90.53
67373;BME280;54257;54.496;18.412;2023-04-25T07:42:00;98537.38;;;8.56;90.11
67373;BME280;54257;54.496;18.412;2023-04-25T07:44:29;98540.45;;;8.65;90.36
67373;BME280;54257;54.496;18.412;2023-04-25T07:46:57;98541.64;;;8.77;90.29
67373;BME280;54257;54.496;18.412;2023-04-25T07:49:25;98543.18;;;8.92;90.43
67373;BME280;54257;54.496;18.412;2023-04-25T07:51:52;98548.63;;;9.17;90.64
67373;BME280;54257;54.496;18.412;2023-04-25T07:54:19;98547.22;;;9.44;90.42
67373;BME280;54257;54.496;18.412;2023-04-25T07:56:46;98546.14;;;9.67;89.31
67373;BME280;54257;54.496;18.412;2023-04-25T07:59:13;98545.41;;;9.84;88.44
67373;BME280;54257;54.496;18.412;2023-04-25T08:01:40;98551.48;;;10.00;87.88
67373;BME280;54257;54.496;18.412;2023-04-25T08:04:07;98552.79;;;10.12;84.95
67373;BME280;54257;54.496;18.412;2023-04-25T08:06:34;98557.71;;;10.21;84.45
67373;BME280;54257;54.496;18.412;2023-04-25T08:09:02;98560.26;;;10.26;83.14
67373;BME280;54257;54.496;18.412;2023-04-25T08:11:29;98564.20;;;10.25;82.19
67373;BME280;54257;54.496;18.412;2023-04-25T08:13:57;98571.38;;;10.23;81.86
67373;BME280;54257;54.496;18.412;2023-04-25T08:16:24;98569.30;;;10.25;82.10
67373;BME280;54257;54.496;18.412;2023-04-25T08:18:51;98571.20;;;10.26;80.84
67373;BME280;54257;54.496;18.412;2023-04-25T08:21:18;98572.73;;;10.25;80.97
67373;BME280;54257;54.496;18.412;2023-04-25T08:23:45;98572.90;;;10.26;81.09
67373;BME280;54257;54.496;18.412;2023-04-25T08:26:12;98578.88;;;10.25;80.53
67373;BME280;54257;54.496;18.412;2023-04-25T08:28:39;98580.25;;;10.27;79.94
67373;BME280;54257;54.496;18.412;2023-04-25T08:31:06;98588.56;;;10.32;79.81
67373;BME280;54257;54.496;18.412;2023-04-25T08:33:33;98590.41;;;10.39;79.41
67373;BME280;54257;54.496;18.412;2023-04-25T08:36:00;98592.42;;;10.47;78.25
67373;BME280;54257;54.496;18.412;2023-04-25T08:38:27;98593.08;;;10.52;78.11
67373;BME280;54257;54.496;18.412;2023-04-25T08:40:56;98591.52;;;10.57;77.90
67373;BME280;54257;54.496;18.412;2023-04-25T08:43:25;98595.78;;;10.60;78.01
67373;BME280;54257;54.496;18.412;2023-04-25T08:45:53;98600.36;;;10.62;77.85
67373;BME280;54257;54.496;18.412;2023-04-25T08:48:21;98605.83;;;10.62;77.70
67373;BME280;54257;54.496;18.412;2023-04-25T08:50:53;98607.85;;;10.66;77.87
67373;BME280;54257;54.496;18.412;2023-04-25T08:53:29;98612.05;;;10.78;78.30
67373;BME280;54257;54.496;18.412;2023-04-25T08:56:01;98612.75;;;11.01;78.56
67373;BME280;54257;54.496;18.412;2023-04-25T08:58:31;98617.73;;;11.20;77.71
67373;BME280;54257;54.496;18.412;2023-04-25T09:00:59;98620.07;;;11.27;75.23
67373;BME280;54257;54.496;18.412;2023-04-25T09:03:27;98624.54;;;11.26;75.07
67373;BME280;54257;54.496;18.412;2023-04-25T09:05:55;98626.94;;;11.25;75.20
67373;BME280;54257;54.496;18.412;2023-04-25T09:08:22;98633.60;;;11.22;74.90
67373;BME280;54257;54.496;18.412;2023-04-25T09:10:49;98636.20;;;11.19;74.81
67373;BME280;54257;54.496;18.412;2023-04-25T09:13:25;98633.98;;;11.19;74.05
67373;BME280;54257;54.496;18.412;2023-04-25T09:15:55;98637.37;;;11.23;74.35
67373;BME280;54257;54.496;18.412;2023-04-25T09:20:55;98642.49;;;11.44;74.28
67373;BME280;54257;54.496;18.412;2023-04-25T09:23:23;98645.77;;;11.59;73.82
67373;BME280;54257;54.496;18.412;2023-04-25T09:25:52;98641.93;;;11.69;73.52
67373;BME280;54257;54.496;18.412;2023-04-25T09:28:24;98639.23;;;11.86;73.78
67373;BME280;54257;54.496;18.412;2023-04-25T09:30:56;98642.89;;;11.96;72.40
67373;BME280;54257;54.496;18.412;2023-04-25T09:33:33;98643.60;;;11.94;71.74
67373;BME280;54257;54.496;18.412;2023-04-25T09:36:06;98648.20;;;11.95;72.02
67373;BME280;54257;54.496;18.412;2023-04-25T09:38:42;98650.59;;;11.95;72.18
67373;BME280;54257;54.496;18.412;2023-04-25T09:41:09;98650.61;;;11.94;72.18
67373;BME280;54257;54.496;18.412;2023-04-25T09:43:38;98655.23;;;11.94;72.16
67373;BME280;54257;54.496;18.412;2023-04-25T09:46:09;98658.51;;;11.92;71.87
67373;BME280;54257;54.496;18.412;2023-04-25T09:48:37;98657.33;;;11.91;71.90
67373;BME280;54257;54.496;18.412;2023-04-25T09:51:12;98663.98;;;11.92;71.56
67373;BME280;54257;54.496;18.412;2023-04-25T09:53:45;98666.09;;;11.87;71.14
67373;BME280;54257;54.496;18.412;2023-04-25T09:56:13;98669.39;;;11.83;71.01
67373;BME280;54257;54.496;18.412;2023-04-25T09:58:41;98674.15;;;11.85;71.37
67373;BME280;54257;54.496;18.412;2023-04-25T10:01:11;98679.63;;;11.83;70.23
67373;BME280;54257;54.496;18.412;2023-04-25T10:03:39;98679.35;;;11.74;69.90
67373;BME280;54257;54.496;18.412;2023-04-25T10:06:19;98677.04;;;11.65;70.27
67373;BME280;54257;54.496;18.412;2023-04-25T10:08:50;98682.39;;;11.59;69.82
67373;BME280;54257;54.496;18.412;2023-04-25T10:11:18;98685.05;;;11.47;69.51
67373;BME280;54257;54.496;18.412;2023-04-25T10:13:45;98684.60;;;11.38;69.95
67373;BME280;54257;54.496;18.412;2023-04-25T10:16:14;98690.12;;;11.32;70.46
67373;BME280;54257;54.496;18.412;2023-04-25T10:18:42;98690.80;;;11.31;70.86
67373;BME280;54257;54.496;18.412;2023-04-25T10:21:10;98692.67;;;11.31;71.19
67373;BME280;54257;54.496;18.412;2023-04-25T10:23:37;98696.61;;;11.31;71.27
67373;BME280;54257;54.496;18.412;2023-04-25T10:26:05;98695.41;;;11.33;71.34
67373;BME280;54257;54.496;18.412;2023-04-25T10:29:00;98688.39;;;11.35;71.23
67373;BME280;54257;54.496;18.412;2023-04-25T10:31:32;98688.02;;;11.40;71.65
67373;BME280;54257;54.496;18.412;2023-04-25T10:34:00;98686.98;;;11.42;71.19
67373;BME280;54257;54.496;18.412;2023-04-25T10:36:31;98691.04;;;11.46;71.47
67373;BME280;54257;54.496;18.412;2023-04-25T10:39:03;98692.50;;;11.55;71.61
67373;BME280;54257;54.496;18.412;2023-04-25T10:41:46;98696.38;;;11.62;71.36
67373;BME280;54257;54.496;18.412;2023-04-25T10:44:14;98695.29;;;11.71;71.39
67373;BME280;54257;54.496;18.412;2023-04-25T10:46:44;98694.88;;;11.80;71.29
67373;BME280;54257;54.496;18.412;2023-04-25T10:49:38;98698.75;;;11.89;70.91
67373;BME280;54257;54.496;18.412;2023-04-25T10:52:18;98700.38;;;11.97;70.88
67373;BME280;54257;54.496;18.412;2023-04-25T10:54:53;98698.79;;;12.03;70.00
67373;BME280;54257;54.496;18.412;2023-04-25T11:00:20;98702.27;;;11.97;68.68
67373;BME280;54257;54.496;18.412;2023-04-25T11:02:57;98699.41;;;11.92;68.41
67373;BME280;54257;54.496;18.412;2023-04-25T11:05:33;98700.45;;;11.91;68.32
67373;BME280;54257;54.496;18.412;2023-04-25T11:08:00;98701.99;;;11.90;68.59
67373;BME280;54257;54.496;18.412;2023-04-25T11:10:29;98707.46;;;11.91;68.28
67373;BME280;54257;54.496;18.412;2023-04-25T11:12:57;98714.49;;;11.89;67.83
67373;BME280;54257;54.496;18.412;2023-04-25T11:15:25;98717.27;;;11.83;67.36
67373;BME280;54257;54.496;18.412;2023-04-25T11:17:53;98715.97;;;11.72;66.98
67373;BME280;54257;54.496;18.412;2023-04-25T11:20:22;98722.02;;;11.66;67.18
67373;BME280;54257;54.496;18.412;2023-04-25T11:22:52;98720.52;;;11.59;67.28
67373;BME280;54257;54.496;18.412;2023-04-25T11:25:19;98718.66;;;11.55;67.66
67373;BME280;54257;54.496;18.412;2023-04-25T11:27:54;98719.55;;;11.52;67.78
67373;BME280;54257;54.496;18.412;2023-04-25T11:30:22;98725.04;;;11.51;68.11
67373;BME280;54257;54.496;18.412;2023-04-25T11:32:49;98729.34;;;11.46;68.02
67373;BME280;54257;54.496;18.412;2023-04-25T11:35:17;98733.98;;;11.43;68.23
67373;BME280;54257;54.496;18.412;2023-04-25T11:37:44;98734.00;;;11.41;68.19
67373;BME280;54257;54.496;18.412;2023-04-25T11:40:12;98730.77;;;11.38;68.13
67373;BME280;54257;54.496;18.412;2023-04-25T11:42:43;98733.02;;;11.35;68.18
67373;BME280;54257;54.496;18.412;2023-04-25T11:45:11;98735.08;;;11.32;68.12
67373;BME280;54257;54.496;18.412;2023-04-25T11:47:38;98737.83;;;11.29;68.44
67373;BME280;54257;54.496;18.412;2023-04-25T11:50:07;98734.59;;;11.26;68.27
67373;BME280;54257;54.496;18.412;2023-04-25T11:52:36;98739.09;;;11.18;67.91
67373;BME280;54257;54.496;18.412;2023-04-25T11:57:41;98742.73;;;11.07;68.55
67373;BME280;54257;54.496;18.412;2023-04-25T12:00:14;98745.64;;;11.07;69.04
67373;BME280;54257;54.496;18.412;2023-04-25T12:02:46;98744.64;;;11.06;68.89
67373;BME280;54257;54.496;18.412;2023-04-25T12:05:15;98746.17;;;11.04;69.00
67373;BME280;54257;54.496;18.412;2023-04-25T12:07:43;98744.48;;;11.02;69.12
67373;BME280;54257;54.496;18.412;2023-04-25T12:10:14;98743.30;;;10.99;69.07
67373;BME280;54257;54.496;18.412;2023-04-25T12:12:43;98741.24;;;10.98;69.36
67373;BME280;54257;54.496;18.412;2023-04-25T12:15:16;98743.80;;;10.99;69.65
67373;BME280;54257;54.496;18.412;2023-04-25T12:17:48;98740.55;;;10.99;69.74
67373;BME280;54257;54.496;18.412;2023-04-25T12:20:29;98747.73;;;11.01;70.04
67373;BME280;54257;54.496;18.412;2023-04-25T12:22:58;98749.41;;;11.05;70.09
67373;BME280;54257;54.496;18.412;2023-04-25T12:25:41;98751.29;;;11.09;70.05
67373;BME280;54257;54.496;18.412;2023-04-25T12:28:10;98751.29;;;11.10;69.91
67373;BME280;54257;54.496;18.412;2023-04-25T12:30:59;98749.70;;;11.15;70.26
67373;BME280;54257;54.496;18.412;2023-04-25T12:33:31;98752.05;;;11.21;70.28
67373;BME280;54257;54.496;18.412;2023-04-25T12:35:58;98749.31;;;11.24;70.17
67373;BME280;54257;54.496;18.412;2023-04-25T12:38:31;98752.36;;;11.29;70.23
67373;BME280;54257;54.496;18.412;2023-04-25T12:40:58;98751.79;;;11.38;70.48
67373;BME280;54257;54.496;18.412;2023-04-25T12:43:25;98753.62;;;11.46;70.20
67373;BME280;54257;54.496;18.412;2023-04-25T12:45:54;98755.14;;;11.50;70.21
67373;BME280;54257;54.496;18.412;2023-04-25T12:48:22;98751.84;;;11.58;70.43
67373;BME280;54257;54.496;18.412;2023-04-25T12:50:50;98751.27;;;11.63;69.64
67373;BME280;54257;54.496;18.412;2023-04-25T12:53:22;98754.34;;;11.65;68.61
67373;BME280;54257;54.496;18.412;2023-04-25T12:55:51;98750.41;;;11.64;68.14
67373;BME280;54257;54.496;18.412;2023-04-25T12:58:19;98748.01;;;11.66;68.27
67373;BME280;54257;54.496;18.412;2023-04-25T13:00:46;98743.20;;;11.69;67.98
67373;BME280;54257;54.496;18.412;2023-04-25T13:03:18;98742.66;;;11.73;67.30
67373;BME280;54257;54.496;18.412;2023-04-25T13:05:45;98741.77;;;11.76;66.89
67373;BME280;54257;54.496;18.412;2023-04-25T13:08:12;98743.27;;;11.83;66.47